Time;durP1;ratioP1;P1;durP2;ratioP2;P2;SDS_P1;SDS_P2;PMS_P1;PMS_P2;Temp;Humidity;BMP_temperature;BMP_pressure;BME280_temperature;BME280_humidity;BME280_pressure;Samples;Min_cycle;Max_cycle;Signal;HPM_P1;HPM_P2
2021/09/13 00:01:32;;;;;;;13.60;6.83;;;;;;;;;;6126048;23;20275;-71
2021/09/13 00:12:27;;;;;;;12.90;5.72;;;;;;;;;;6127636;23;20033;-71
2021/09/13 00:14:52;;;;;;;12.60;6.50;;;;;;;;;;5980144;24;20004;-71
2021/09/13 00:17:17;;;;;;;14.52;6.65;;;;;;;;;;5981879;24;20457;-71
2021/09/13 00:19:43;;;;;;;15.88;6.32;;;;;;;;;;5981738;24;20468;-70
2021/09/13 00:22:08;;;;;;;11.73;6.25;;;;;;;;;;5981943;24;20001;-70
2021/09/13 00:24:34;;;;;;;14.77;6.50;;;;;;;;;;5981977;24;20009;-70
2021/09/13 00:26:59;;;;;;;10.75;6.38;;;;;;;;;;5981863;24;20005;-71
2021/09/13 00:29:25;;;;;;;10.55;6.28;;;;;;;;;;5981924;24;20004;-71
2021/09/13 00:31:50;;;;;;;11.20;6.18;;;;;;;;;;5958685;24;20460;-70
2021/09/13 00:34:15;;;;;;;13.60;6.22;;;;;;;;;;5981726;24;20041;-70
2021/09/13 00:36:41;;;;;;;8.23;6.10;;;;;;;;;;5981867;24;20008;-70
2021/09/13 00:39:06;;;;;;;15.13;6.40;;;;;;;;;;5982015;24;20144;-71
2021/09/13 00:41:32;;;;;;;15.82;5.75;;;;;;;;;;5981884;24;20450;-71
2021/09/13 00:43:58;;;;;;;12.07;6.05;;;;;;;;;;5981591;24;20008;-70
2021/09/13 00:46:24;;;;;;;10.38;5.65;;;;;;;;;;6108954;23;20037;-71
2021/09/13 00:48:49;;;;;;;11.18;5.63;;;;;;;;;;6101426;23;20037;-71
2021/09/13 00:51:15;;;;;;;9.65;5.70;;;;;;;;;;6127427;23;20025;-71
2021/09/13 00:53:40;;;;;;;15.70;6.20;;;;;;;;;;6127370;23;20002;-71
2021/09/13 00:56:06;;;;;;;10.75;6.03;;;;;;;;;;6127268;23;19998;-71
2021/09/13 00:58:32;;;;;;;17.95;6.32;;;;;;;;;;6127805;23;20012;-71
2021/09/13 01:00:57;;;;;;;8.23;5.68;;;;;;;;;;6127560;23;20076;-71
2021/09/13 01:03:27;;;;;;;17.05;6.45;;;;;;;;;;6095305;23;20109;-72
2021/09/13 01:06:01;;;;;;;15.23;6.53;;;;;;;;;;6097860;23;19995;-70
2021/09/13 01:08:48;;;;;;;13.88;6.22;;;;;;;;;;6097947;23;20428;-72
2021/09/13 01:11:14;;;;;;;11.93;6.07;;;;;;;;;;6098190;23;20025;-71
2021/09/13 01:13:39;;;;;;;12.13;6.32;;;;;;;;;;6097877;23;20420;-70
2021/09/13 01:16:05;;;;;;;11.25;5.57;;;;;;;;;;6097900;23;20302;-71
2021/09/13 01:18:31;;;;;;;12.98;6.50;;;;;;;;;;6096250;23;20074;-71
2021/09/13 01:20:57;;;;;;;13.15;5.50;;;;;;;;;;6097894;23;20026;-71
2021/09/13 01:23:29;;;;;;;15.90;5.85;;;;;;;;;;6098201;23;19998;-71
2021/09/13 01:25:54;;;;;;;11.02;6.00;;;;;;;;;;6097773;23;20085;-71
2021/09/13 01:28:20;;;;;;;10.43;6.88;;;;;;;;;;6097700;23;20038;-71
2021/09/13 01:30:45;;;;;;;14.05;5.55;;;;;;;;;;6097709;23;20003;-70
2021/09/13 01:33:11;;;;;;;10.75;6.05;;;;;;;;;;6098285;23;20002;-71
2021/09/13 01:35:36;;;;;;;17.35;6.03;;;;;;;;;;6096370;23;19999;-71
2021/09/13 01:38:01;;;;;;;12.73;6.05;;;;;;;;;;6098101;23;19998;-71
2021/09/13 01:40:27;;;;;;;13.02;5.55;;;;;;;;;;6097905;23;20317;-71
2021/09/13 01:42:56;;;;;;;10.32;5.70;;;;;;;;;;6097911;23;20005;-71
2021/09/13 01:45:22;;;;;;;8.10;5.65;;;;;;;;;;6097863;23;20002;-71
2021/09/13 01:47:47;;;;;;;12.05;5.53;;;;;;;;;;6096484;23;20049;-71
2021/09/13 01:50:12;;;;;;;10.52;5.90;;;;;;;;;;6097578;23;19999;-71
2021/09/13 01:52:38;;;;;;;8.02;5.35;;;;;;;;;;6096283;23;20006;-71
2021/09/13 01:55:04;;;;;;;8.55;5.00;;;;;;;;;;6097992;23;20336;-71
2021/09/13 01:57:29;;;;;;;8.52;5.80;;;;;;;;;;6097649;23;20030;-71
2021/09/13 01:59:54;;;;;;;9.15;5.82;;;;;;;;;;6095611;23;20061;-70
2021/09/13 02:02:20;;;;;;;14.13;6.47;;;;;;;;;;6074795;23;20022;-71
2021/09/13 02:05:23;;;;;;;11.65;6.45;;;;;;;;;;6126739;23;19998;-71
2021/09/13 02:07:55;;;;;;;10.55;6.15;;;;;;;;;;6008887;23;20011;-71
2021/09/13 02:10:20;;;;;;;9.38;6.20;;;;;;;;;;6009020;23;20015;-71
2021/09/13 02:12:46;;;;;;;8.35;6.13;;;;;;;;;;6009278;23;20338;-71
2021/09/13 02:15:12;;;;;;;13.57;6.43;;;;;;;;;;6009491;23;20007;-71
2021/09/13 02:17:37;;;;;;;12.75;6.30;;;;;;;;;;6009145;23;20019;-71
2021/09/13 02:20:03;;;;;;;14.40;7.15;;;;;;;;;;6008966;23;20014;-71
2021/09/13 02:22:28;;;;;;;16.40;6.90;;;;;;;;;;6009114;23;20008;-71
2021/09/13 02:24:53;;;;;;;14.90;6.13;;;;;;;;;;5985675;23;20086;-71
2021/09/13 02:27:19;;;;;;;17.63;6.53;;;;;;;;;;5985647;23;20008;-71
2021/09/13 02:29:45;;;;;;;13.70;6.47;;;;;;;;;;6009379;23;20003;-71
2021/09/13 02:32:10;;;;;;;14.43;6.78;;;;;;;;;;6008780;23;20027;-71
2021/09/13 02:34:35;;;;;;;15.63;6.82;;;;;;;;;;5985405;23;20091;-71
2021/09/13 02:37:01;;;;;;;11.80;6.38;;;;;;;;;;6008825;23;20100;-71
2021/09/13 02:39:26;;;;;;;16.25;6.35;;;;;;;;;;6117738;23;20009;-71
2021/09/13 02:41:52;;;;;;;12.80;7.68;;;;;;;;;;6126114;23;20393;-70
2021/09/13 02:44:18;;;;;;;12.60;6.70;;;;;;;;;;6101011;23;20348;-71
2021/09/13 02:46:43;;;;;;;9.90;6.05;;;;;;;;;;6126468;23;20073;-70
2021/09/13 02:49:09;;;;;;;12.93;6.07;;;;;;;;;;6100884;23;20006;-71
2021/09/13 02:51:34;;;;;;;17.45;8.35;;;;;;;;;;6100341;23;20085;-71
2021/09/13 02:54:00;;;;;;;18.98;6.78;;;;;;;;;;6126133;23;20021;-71
2021/09/13 02:56:25;;;;;;;17.27;7.22;;;;;;;;;;6126226;23;20005;-71
2021/09/13 02:58:50;;;;;;;11.73;6.38;;;;;;;;;;6100243;23;20010;-71
2021/09/13 03:01:16;;;;;;;16.63;6.15;;;;;;;;;;6126544;23;19998;-72
2021/09/13 03:03:42;;;;;;;13.35;6.85;;;;;;;;;;6125777;23;20053;-72
2021/09/13 03:06:09;;;;;;;15.85;7.60;;;;;;;;;;6126078;23;20005;-72
2021/09/13 03:08:34;;;;;;;22.52;8.32;;;;;;;;;;6126199;23;20001;-72
2021/09/13 03:11:00;;;;;;;17.73;7.40;;;;;;;;;;6076225;23;20413;-72
2021/09/13 03:13:25;;;;;;;12.00;7.38;;;;;;;;;;6126258;23;19998;-72
2021/09/13 03:15:50;;;;;;;16.48;6.43;;;;;;;;;;6126013;23;19998;-71
2021/09/13 03:18:16;;;;;;;15.98;6.93;;;;;;;;;;6126277;23;20084;-71
2021/09/13 03:20:41;;;;;;;13.65;7.18;;;;;;;;;;6100102;23;20347;-71
2021/09/13 03:23:07;;;;;;;14.55;7.25;;;;;;;;;;6100447;23;20049;-72
2021/09/13 03:25:32;;;;;;;11.52;7.05;;;;;;;;;;6125996;23;20002;-72
2021/09/13 03:27:58;;;;;;;14.25;6.72;;;;;;;;;;6099778;23;20010;-71
2021/09/13 03:30:24;;;;;;;14.05;7.35;;;;;;;;;;6100354;23;20077;-71
2021/09/13 03:32:49;;;;;;;18.95;8.45;;;;;;;;;;6126112;23;20447;-71
2021/09/13 03:35:15;;;;;;;10.35;6.45;;;;;;;;;;6125932;23;20001;-71
2021/09/13 03:37:40;;;;;;;15.90;7.25;;;;;;;;;;6125867;23;20009;-71
2021/09/13 03:40:06;;;;;;;14.63;7.07;;;;;;;;;;6126002;23;20084;-72
2021/09/13 03:42:31;;;;;;;15.02;6.90;;;;;;;;;;6126089;23;20008;-71
2021/09/13 03:44:56;;;;;;;17.17;6.40;;;;;;;;;;6099993;23;20006;-71
2021/09/13 03:47:22;;;;;;;11.85;6.53;;;;;;;;;;6125985;23;20002;-72
2021/09/13 03:49:47;;;;;;;8.63;6.50;;;;;;;;;;6125937;23;20005;-71
2021/09/13 03:52:13;;;;;;;11.82;6.50;;;;;;;;;;6125748;23;20332;-71
2021/09/13 03:54:39;;;;;;;12.63;6.22;;;;;;;;;;6125940;23;19998;-72
2021/09/13 03:57:04;;;;;;;13.55;7.20;;;;;;;;;;6125762;23;19998;-72
2021/09/13 03:59:30;;;;;;;17.95;7.22;;;;;;;;;;6125797;23;20395;-71
2021/09/13 04:01:57;;;;;;;47.28;10.50;;;;;;;;;;6125050;23;20077;-71
2021/09/13 04:04:25;;;;;;;32.67;8.75;;;;;;;;;;6125678;23;20096;-72
2021/09/13 04:06:53;;;;;;;19.55;7.75;;;;;;;;;;6126138;23;20077;-71
2021/09/13 04:11:54;;;;;;;18.00;7.88;;;;;;;;;;6125766;23;20066;-72
2021/09/13 04:14:20;;;;;;;26.48;8.30;;;;;;;;;;6076162;23;20042;-71
2021/09/13 04:16:45;;;;;;;20.52;7.30;;;;;;;;;;6125740;23;19998;-71
2021/09/13 04:19:11;;;;;;;21.73;8.25;;;;;;;;;;6099955;23;20009;-71
2021/09/13 04:21:36;;;;;;;11.65;6.57;;;;;;;;;;6125851;23;19990;-72
2021/09/13 04:24:01;;;;;;;31.83;8.55;;;;;;;;;;6125525;23;20009;-71
2021/09/13 04:26:27;;;;;;;16.75;7.22;;;;;;;;;;6125671;23;20002;-71
2021/09/13 04:28:52;;;;;;;15.80;8.40;;;;;;;;;;6125741;23;20001;-70
2021/09/13 04:31:18;;;;;;;12.07;7.95;;;;;;;;;;6099960;23;20428;-71
2021/09/13 04:33:43;;;;;;;15.25;6.78;;;;;;;;;;6125748;23;19998;-71
2021/09/13 04:36:09;;;;;;;15.32;7.38;;;;;;;;;;6125561;23;20024;-71
2021/09/13 04:38:34;;;;;;;14.98;7.60;;;;;;;;;;6099579;23;20013;-71
2021/09/13 04:40:59;;;;;;;15.82;7.40;;;;;;;;;;6099805;23;20013;-71
2021/09/13 04:43:25;;;;;;;22.95;8.02;;;;;;;;;;6126112;23;20376;-71
2021/09/13 04:45:50;;;;;;;19.27;8.82;;;;;;;;;;6099624;23;19998;-72
2021/09/13 04:48:16;;;;;;;16.73;7.60;;;;;;;;;;6125850;23;19998;-71
2021/09/13 04:50:41;;;;;;;13.38;7.68;;;;;;;;;;6125622;23;20005;-71
2021/09/13 04:53:06;;;;;;;15.73;8.93;;;;;;;;;;6099942;23;20009;-71
2021/09/13 04:55:34;;;;;;;17.90;7.68;;;;;;;;;;6125617;23;19990;-71
2021/09/13 04:57:59;;;;;;;20.42;8.15;;;;;;;;;;6125236;23;20034;-71
2021/09/13 05:00:25;;;;;;;10.43;7.05;;;;;;;;;;6125726;23;19994;-71
2021/09/13 05:14:13;;;;;;;17.52;8.70;;;;;;;;;;6126669;23;20037;-71
2021/09/13 05:16:39;;;;;;;34.65;8.15;;;;;;;;;;6127295;23;20050;-71
2021/09/13 05:19:04;;;;;;;33.85;8.73;;;;;;;;;;6101462;23;20006;-71
2021/09/13 05:21:32;;;;;;;19.05;7.65;;;;;;;;;;6127123;23;20010;-71
2021/09/13 05:23:58;;;;;;;29.58;7.38;;;;;;;;;;6100918;23;20420;-71
2021/09/13 05:26:23;;;;;;;22.33;7.68;;;;;;;;;;6101889;23;20009;-72
2021/09/13 05:28:48;;;;;;;16.42;7.25;;;;;;;;;;6127195;23;20328;-71
2021/09/13 05:31:14;;;;;;;23.27;7.10;;;;;;;;;;6101311;23;20041;-71
2021/09/13 05:33:39;;;;;;;26.35;7.35;;;;;;;;;;6127120;23;20491;-71
2021/09/13 05:36:06;;;;;;;27.70;7.20;;;;;;;;;;6101139;23;20380;-71
2021/09/13 05:38:33;;;;;;;13.85;6.78;;;;;;;;;;6101288;23;20037;-71
2021/09/13 05:40:59;;;;;;;19.77;6.00;;;;;;;;;;6127112;23;20025;-71
2021/09/13 05:43:24;;;;;;;16.60;6.10;;;;;;;;;;6127040;23;20005;-71
2021/09/13 05:45:52;;;;;;;13.02;6.22;;;;;;;;;;6100911;23;20488;-71
2021/09/13 05:48:17;;;;;;;14.57;6.22;;;;;;;;;;6101060;23;20324;-71
2021/09/13 05:50:43;;;;;;;17.05;6.15;;;;;;;;;;6126852;23;19997;-71
2021/09/13 05:53:08;;;;;;;32.30;6.93;;;;;;;;;;6127214;23;19997;-71
2021/09/13 05:55:34;;;;;;;19.58;5.68;;;;;;;;;;6127034;23;20479;-71
2021/09/13 05:57:59;;;;;;;18.92;5.95;;;;;;;;;;6126642;23;20002;-71
2021/09/13 06:00:24;;;;;;;11.10;5.22;;;;;;;;;;6126872;23;20417;-73
2021/09/13 06:02:50;;;;;;;21.38;5.53;;;;;;;;;;6125593;23;20451;-74
2021/09/13 06:05:15;;;;;;;22.48;5.10;;;;;;;;;;6124683;23;20002;-74
2021/09/13 06:07:41;;;;;;;11.40;5.28;;;;;;;;;;6126369;23;20068;-75
2021/09/13 06:10:07;;;;;;;20.95;5.05;;;;;;;;;;6100634;23;19998;-75
2021/09/13 06:12:32;;;;;;;15.85;5.78;;;;;;;;;;6100543;23;20105;-72
2021/09/13 06:14:58;;;;;;;24.38;5.40;;;;;;;;;;6095725;23;20021;-75
2021/09/13 06:17:23;;;;;;;19.77;5.57;;;;;;;;;;6124067;23;20017;-73
2021/09/13 06:19:48;;;;;;;20.50;4.97;;;;;;;;;;6124059;23;20440;-75
2021/09/13 06:22:14;;;;;;;16.33;5.53;;;;;;;;;;6099635;23;19998;-73
2021/09/13 06:24:40;;;;;;;18.35;5.97;;;;;;;;;;6125332;23;20037;-73
2021/09/13 06:27:06;;;;;;;17.35;5.75;;;;;;;;;;6124013;23;20058;-74
2021/09/13 06:29:32;;;;;;;10.68;4.55;;;;;;;;;;6125078;23;20001;-67
2021/09/13 06:31:58;;;;;;;17.67;5.95;;;;;;;;;;6125387;23;20064;-67
2021/09/13 06:34:23;;;;;;;12.55;5.30;;;;;;;;;;6126268;23;20002;-67
2021/09/13 06:36:49;;;;;;;11.55;4.75;;;;;;;;;;6124381;23;20002;-70
2021/09/13 06:39:14;;;;;;;185.48;15.43;;;;;;;;;;6124676;23;20010;-68
2021/09/13 06:41:40;;;;;;;21.52;4.90;;;;;;;;;;6124752;23;20039;-67
2021/09/13 06:44:05;;;;;;;36.72;6.10;;;;;;;;;;6124615;23;20502;-66
2021/09/13 06:46:41;;;;;;;22.30;5.63;;;;;;;;;;6125039;23;20028;-68
2021/09/13 06:49:06;;;;;;;13.85;5.13;;;;;;;;;;6125582;23;20002;-67
2021/09/13 06:51:32;;;;;;;16.38;5.07;;;;;;;;;;6124922;23;20005;-66
2021/09/13 06:53:58;;;;;;;15.55;5.38;;;;;;;;;;6120407;23;20317;-68
2021/09/13 06:56:25;;;;;;;19.08;5.93;;;;;;;;;;6124078;23;20081;-66
